Time;durP1;ratioP1;P1;durP2;ratioP2;P2;SDS_P1;SDS_P2;PMS_P1;PMS_P2;Temp;Humidity;BMP_temperature;BMP_pressure;BME280_temperature;BME280_humidity;BME280_pressure;Samples;Min_cycle;Max_cycle;Signal;HPM_P1;HPM_P2
2022/11/24 00:01:22;;;;;;;27.77;17.80;;;;;;;5.82;89.20;94404.91;1664069;86;21348;-66
2022/11/24 00:04:01;;;;;;;26.97;17.30;;;;;;;5.94;89.64;94404.27;1664690;86;21516;-67
2022/11/24 00:06:30;;;;;;;21.00;15.03;;;;;;;6.01;89.50;94398.87;1664213;86;21053;-67
2022/11/24 00:08:58;;;;;;;24.47;15.40;;;;;;;6.03;88.91;94393.16;1664445;86;21014;-67
2022/11/24 00:11:28;;;;;;;21.10;14.17;;;;;;;5.96;88.03;94399.41;1664323;86;21565;-67
2022/11/24 00:13:56;;;;;;;19.07;13.10;;;;;;;5.86;87.92;94403.08;1664325;86;21006;-67
2022/11/24 00:16:31;;;;;;;10.47;8.50;;;;;;;5.88;88.15;94398.68;1664138;86;21002;-67
2022/11/24 00:19:00;;;;;;;17.20;10.43;;;;;;;5.81;87.79;94404.92;1664075;86;21078;-67
2022/11/24 00:21:28;;;;;;;23.60;14.53;;;;;;;5.77;88.22;94408.48;1664140;86;21093;-67
2022/11/24 00:23:56;;;;;;;23.83;15.80;;;;;;;5.84;88.60;94408.78;1664377;86;21532;-67
2022/11/24 00:26:27;;;;;;;43.70;25.30;;;;;;;5.85;88.90;94409.22;1668120;85;21058;-67
2022/11/24 00:28:57;;;;;;;50.73;28.40;;;;;;;5.88;88.58;94409.16;1668367;86;21519;-67
2022/11/24 00:31:29;;;;;;;24.83;15.90;;;;;;;5.85;88.37;94403.53;1668857;86;21054;-66
2022/11/24 00:34:00;;;;;;;21.00;14.10;;;;;;;5.83;88.66;94408.38;1668946;86;21010;-67
2022/11/24 00:36:30;;;;;;;87.67;43.73;;;;;;;5.73;89.11;94399.84;1668762;86;21033;-67
2022/11/24 00:39:01;;;;;;;64.50;33.47;;;;;;;5.70;89.36;94402.97;1668540;86;21532;-67
2022/11/24 00:41:30;;;;;;;88.93;46.27;;;;;;;5.66;89.32;94400.84;1667878;86;21074;-67
2022/11/24 00:43:57;;;;;;;79.87;42.33;;;;;;;5.68;89.12;94408.67;1668935;86;21022;-67
2022/11/24 00:46:25;;;;;;;55.07;30.07;;;;;;;5.72;89.70;94405.97;1668144;86;21108;-67
2022/11/24 00:48:52;;;;;;;60.47;33.73;;;;;;;5.84;89.95;94403.55;1668382;86;21402;-67
2022/11/24 00:51:23;;;;;;;78.97;42.10;;;;;;;5.89;89.14;94406.08;1667843;86;21049;-67
2022/11/24 00:53:49;;;;;;;75.53;41.63;;;;;;;5.92;88.92;94412.56;1668855;86;21054;-67
2022/11/24 00:56:16;;;;;;;73.73;40.50;;;;;;;5.96;89.07;94410.34;1668429;86;21097;-67
2022/11/24 00:58:43;;;;;;;67.93;33.40;;;;;;;5.92;88.54;94412.56;1669067;86;21018;-67
2022/11/24 01:01:16;;;;;;;43.20;25.97;;;;;;;5.89;88.49;94406.94;1668050;86;21038;-67
2022/11/24 01:03:45;;;;;;;35.53;21.67;;;;;;;5.89;89.00;94416.09;1668790;86;21069;-67
2022/11/24 01:06:17;;;;;;;53.67;31.03;;;;;;;5.93;88.86;94414.30;1642915;86;21102;-67
2022/11/24 01:08:45;;;;;;;62.40;34.40;;;;;;;5.94;88.96;94416.05;1668271;86;21073;-67
2022/11/24 01:11:25;;;;;;;50.83;30.67;;;;;;;5.94;89.16;94420.83;1668343;86;21105;-67
2022/11/24 01:13:59;;;;;;;54.57;31.13;;;;;;;5.96;88.86;94424.74;1668384;86;21090;-67
2022/11/24 01:16:33;;;;;;;41.87;24.10;;;;;;;5.93;88.60;94424.77;1668380;86;21819;-67
2022/11/24 01:19:02;;;;;;;38.30;22.67;;;;;;;5.86;88.44;94422.26;1668409;86;21058;-67
2022/11/24 01:21:29;;;;;;;35.87;20.87;;;;;;;5.80;88.56;94426.31;1668221;86;21039;-67
2022/11/24 01:23:57;;;;;;;31.53;19.87;;;;;;;5.74;88.61;94425.11;1668636;86;21034;-67
2022/11/24 01:26:23;;;;;;;22.00;15.57;;;;;;;5.73;88.87;94434.31;1668824;85;21085;-67
2022/11/24 01:28:55;;;;;;;21.93;14.87;;;;;;;5.74;89.02;94427.72;1667618;86;21046;-67
2022/11/24 01:31:23;;;;;;;23.00;14.40;;;;;;;5.74;89.06;94426.86;1668759;86;21029;-67
2022/11/24 01:33:50;;;;;;;22.93;15.20;;;;;;;5.72;89.00;94430.84;1668462;86;21520;-67
2022/11/24 01:36:17;;;;;;;20.63;13.40;;;;;;;5.64;89.08;94424.86;1668876;86;21018;-67
2022/11/24 01:38:44;;;;;;;20.00;15.03;;;;;;;5.60;89.06;94423.21;1668253;86;21537;-67
2022/11/24 01:41:18;;;;;;;19.10;13.17;;;;;;;5.61;89.19;94427.54;1668857;86;21045;-67
2022/11/24 01:43:45;;;;;;;18.77;13.23;;;;;;;5.60;89.26;94426.68;1668834;86;21037;-67
2022/11/24 01:46:43;;;;;;;19.13;13.30;;;;;;;5.61;89.25;94432.32;1668718;86;21081;-67
2022/11/24 01:49:25;;;;;;;16.93;11.43;;;;;;;5.57;89.17;94430.67;1652086;86;21571;-67
2022/11/24 01:52:06;;;;;;;19.37;12.47;;;;;;;5.51;89.36;94428.14;1654089;86;21054;-67
2022/11/24 01:54:43;;;;;;;19.97;13.23;;;;;;;5.47;89.10;94424.30;1666341;86;21050;-67
2022/11/24 01:57:26;;;;;;;17.50;12.67;;;;;;;5.46;89.57;94422.13;1668545;86;21081;-67
2022/11/24 01:59:57;;;;;;;15.88;12.25;;;;;;;5.46;89.55;94423.44;1668674;86;21016;-67
2022/11/24 02:02:27;;;;;;;17.63;11.93;;;;;;;5.53;89.74;94432.05;1668536;86;21042;-67
2022/11/24 02:04:57;;;;;;;18.43;12.47;;;;;;;5.55;89.71;94432.90;1668578;86;21046;-67
2022/11/24 02:07:25;;;;;;;17.67;12.03;;;;;;;5.55;89.64;94438.98;1668322;86;21038;-67
2022/11/24 02:09:58;;;;;;;14.90;11.20;;;;;;;5.58;90.10;94438.06;1667757;86;21054;-67
2022/11/24 02:12:26;;;;;;;14.43;11.25;;;;;;;5.67;90.39;94437.02;1668884;86;21006;-67
2022/11/24 02:14:55;;;;;;;17.93;12.50;;;;;;;5.80;90.85;94434.17;1667926;86;21042;-67
2022/11/24 02:17:22;;;;;;;16.57;11.27;;;;;;;5.95;91.14;94438.28;1668592;86;21512;-67
2022/11/24 02:19:56;;;;;;;16.47;12.37;;;;;;;6.00;90.14;94438.20;1667880;86;21041;-67
2022/11/24 02:22:49;;;;;;;18.60;12.53;;;;;;;6.05;90.34;94436.35;1668668;86;21070;-67
2022/11/24 02:25:45;;;;;;;18.80;12.53;;;;;;;6.04;89.88;94438.54;1642355;86;21595;-67
2022/11/24 02:28:16;;;;;;;15.37;11.17;;;;;;;6.00;89.81;94441.67;1669205;85;21086;-67
2022/11/24 02:30:43;;;;;;;11.60;9.40;;;;;;;5.94;89.76;94435.23;1669445;85;21068;-67
2022/11/24 02:33:11;;;;;;;17.50;10.93;;;;;;;5.93;89.89;94440.48;1666358;86;20995;-67
2022/11/24 02:35:38;;;;;;;13.50;9.03;;;;;;;5.96;90.02;94443.06;1669092;85;21106;-67
2022/11/24 02:38:05;;;;;;;12.00;8.40;;;;;;;5.94;89.48;94440.47;1665600;85;21549;-67
2022/11/24 02:40:32;;;;;;;7.33;5.17;;;;;;;5.90;89.30;94438.79;1662039;86;21015;-67
2022/11/24 02:43:04;;;;;;;4.57;3.40;;;;;;;5.90;89.59;94438.79;1661780;85;21090;-67
2022/11/24 02:45:31;;;;;;;5.73;3.53;;;;;;;5.89;89.53;94437.50;1664935;86;21081;-67
2022/11/24 02:47:57;;;;;;;3.10;2.57;;;;;;;5.91;89.55;94438.33;1662390;86;21022;-67
2022/11/24 02:50:24;;;;;;;2.80;2.10;;;;;;;5.90;89.50;94437.93;1664615;85;21046;-67
2022/11/24 02:52:51;;;;;;;2.10;1.87;;;;;;;5.85;89.11;94443.25;1662296;85;21023;-67
2022/11/24 02:55:19;;;;;;;2.43;1.40;;;;;;;5.82;89.17;94441.97;1661936;85;21312;-67
2022/11/24 02:57:46;;;;;;;1.20;1.10;;;;;;;5.76;88.87;94441.65;1661962;85;21022;-67
2022/11/24 03:00:14;;;;;;;1.10;0.90;;;;;;;5.71;88.92;94441.33;1662709;86;21054;-67
2022/11/24 03:02:40;;;;;;;1.10;0.93;;;;;;;5.69;88.90;94440.48;1663942;86;21042;-67
2022/11/24 03:05:10;;;;;;;2.40;1.50;;;;;;;5.61;88.71;94439.31;1665373;85;21011;-67
2022/11/24 03:07:37;;;;;;;0.93;0.80;;;;;;;5.55;88.79;94443.36;1662484;86;21035;-67
2022/11/24 03:10:05;;;;;;;0.70;0.70;;;;;;;5.50;88.87;94448.67;1661725;86;21011;-67
2022/11/24 03:12:31;;;;;;;0.50;0.50;;;;;;;5.48;88.87;94447.83;1664811;85;21468;-67
2022/11/24 03:14:58;;;;;;;0.83;0.70;;;;;;;5.46;88.87;94452.67;1662914;85;21078;-67
2022/11/24 03:17:24;;;;;;;0.60;0.50;;;;;;;5.44;88.75;94446.14;1663015;85;21038;-67
2022/11/24 03:19:51;;;;;;;0.63;0.50;;;;;;;5.40;88.73;94451.88;1668442;85;21050;-67
2022/11/24 03:22:18;;;;;;;0.40;0.40;;;;;;;5.32;88.50;94451.61;1663417;85;21113;-67
2022/11/24 03:24:45;;;;;;;0.57;0.50;;;;;;;5.30;88.85;94449.01;1666346;86;21039;-67
2022/11/24 03:27:11;;;;;;;0.53;0.40;;;;;;;5.32;88.79;94444.63;1661574;86;21083;-68
2022/11/24 03:29:38;;;;;;;0.60;0.47;;;;;;;5.33;88.80;94446.78;1665975;86;21599;-68
2022/11/24 03:32:04;;;;;;;0.40;0.40;;;;;;;5.30;88.75;94450.31;1670987;86;21034;-68
2022/11/24 03:34:31;;;;;;;0.57;0.40;;;;;;;5.32;88.78;94455.08;1671101;86;21010;-68
2022/11/24 03:36:57;;;;;;;0.70;0.50;;;;;;;5.32;88.65;94457.70;1670602;86;21052;-67
2022/11/24 03:39:24;;;;;;;0.57;0.30;;;;;;;5.33;88.67;94454.63;1670845;86;21041;-67
2022/11/24 03:41:51;;;;;;;0.33;0.33;;;;;;;5.33;88.48;94454.63;1671290;86;21073;-68
2022/11/24 03:44:17;;;;;;;0.47;0.40;;;;;;;5.35;88.57;94447.63;1670995;86;21033;-67
2022/11/24 03:46:44;;;;;;;0.50;0.50;;;;;;;5.32;88.32;94453.77;1671345;86;21050;-68
2022/11/24 03:49:10;;;;;;;0.40;0.30;;;;;;;5.28;88.09;94456.01;1670006;86;20990;-68
2022/11/24 03:51:37;;;;;;;0.37;0.37;;;;;;;5.26;88.27;94460.84;1670338;86;21037;-67
2022/11/24 03:54:04;;;;;;;0.70;0.40;;;;;;;5.19;87.73;94458.34;1671169;86;21082;-67
2022/11/24 03:56:30;;;;;;;0.30;0.30;;;;;;;5.16;87.74;94463.60;1671357;85;21006;-68
2022/11/24 03:58:57;;;;;;;0.40;0.40;;;;;;;5.13;87.78;94457.57;1670917;86;21061;-68
2022/11/24 04:01:23;;;;;;;0.47;0.40;;;;;;;5.10;87.93;94457.17;1671101;86;21085;-68
2022/11/24 04:03:50;;;;;;;0.40;0.30;;;;;;;5.11;87.89;94462.81;1671174;85;21499;-67
2022/11/24 04:06:17;;;;;;;0.63;0.30;;;;;;;5.04;87.64;94459.90;1670633;86;21065;-67
2022/11/24 04:08:43;;;;;;;0.40;0.40;;;;;;;4.96;87.50;94469.58;1669064;86;21130;-67
2022/11/24 04:12:42;;;;;;;0.30;0.30;;;;;;;4.86;87.59;94474.08;1670663;85;21022;-68
2022/11/24 04:13:38;;;;;;;0.37;0.30;;;;;;;4.70;87.72;94480.42;1670692;86;21093;-67
2022/11/24 04:16:06;;;;;;;0.33;0.30;;;;;;;4.61;87.83;94489.27;1671101;86;21074;-67
2022/11/24 04:18:32;;;;;;;0.60;0.53;;;;;;;4.53;87.77;94476.28;1670061;86;21038;-67
2022/11/24 04:20:59;;;;;;;0.37;0.30;;;;;;;4.52;88.05;94485.46;1671058;86;21046;-67
2022/11/24 04:23:26;;;;;;;0.33;0.30;;;;;;;4.50;88.21;94497.67;1670073;86;21038;-67
2022/11/24 04:25:53;;;;;;;0.50;0.30;;;;;;;4.47;88.25;94494.66;1669673;85;21054;-67
2022/11/24 04:28:19;;;;;;;0.23;0.20;;;;;;;4.46;88.19;94501.19;1642851;86;21006;-67
2022/11/24 04:30:46;;;;;;;0.53;0.30;;;;;;;4.41;88.14;94501.69;1664506;86;20975;-67
2022/11/24 04:33:13;;;;;;;0.60;0.30;;;;;;;4.38;88.10;94499.13;1664103;86;21066;-67
2022/11/24 04:35:39;;;;;;;2.77;0.30;;;;;;;4.36;88.45;94500.89;1664413;85;21049;-67
2022/11/24 04:38:06;;;;;;;1.37;0.40;;;;;;;4.33;88.40;94505.70;1664154;85;21030;-67
2022/11/24 04:40:32;;;;;;;0.70;0.37;;;;;;;4.31;88.57;94506.19;1664041;86;21575;-67
2022/11/24 04:42:59;;;;;;;0.60;0.43;;;;;;;4.30;88.28;94509.22;1664009;85;21030;-67
2022/11/24 04:45:26;;;;;;;10.70;6.33;;;;;;;4.27;88.34;94513.63;1664125;86;21034;-67
2022/11/24 04:47:53;;;;;;;27.93;21.53;;;;;;;4.26;88.29;94519.75;1663689;86;21062;-67
2022/11/24 04:50:22;;;;;;;0.43;0.37;;;;;;;4.24;88.00;94516.28;1664074;86;21086;-67
2022/11/24 04:52:49;;;;;;;1.53;0.50;;;;;;;4.23;88.28;94522.37;1664283;86;21050;-67
2022/11/24 04:55:16;;;;;;;2.60;0.50;;;;;;;4.25;88.09;94519.30;1664209;85;21026;-67
2022/11/24 04:57:43;;;;;;;0.63;0.50;;;;;;;4.20;87.79;94524.57;1664349;85;21014;-67
2022/11/24 05:00:12;;;;;;;1.90;0.50;;;;;;;4.17;87.79;94524.61;1663962;86;21110;-67
2022/11/24 05:02:38;;;;;;;0.50;0.47;;;;;;;4.13;87.75;94532.05;1664088;86;21547;-67
2022/11/24 05:05:07;;;;;;;1.20;0.53;;;;;;;4.12;88.01;94526.41;1664168;86;21053;-67
2022/11/24 05:07:33;;;;;;;2.07;0.70;;;;;;;4.10;87.83;94532.08;1664195;86;21548;-67
2022/11/24 05:12:55;;;;;;;0.77;0.40;;;;;;;4.03;87.60;94535.63;1664340;86;20975;-67
2022/11/24 05:15:22;;;;;;;1.83;0.60;;;;;;;3.99;87.57;94547.86;1664219;86;21025;-67
2022/11/24 05:17:48;;;;;;;2.67;0.83;;;;;;;3.92;87.60;94544.03;1664173;85;21065;-67
2022/11/24 05:20:15;;;;;;;0.87;0.40;;;;;;;3.90;87.67;94543.58;1664025;85;21050;-67
2022/11/24 05:22:42;;;;;;;1.00;0.80;;;;;;;3.82;87.46;94538.03;1664032;86;21066;-67
2022/11/24 05:25:09;;;;;;;1.33;0.50;;;;;;;3.80;87.48;94545.00;1664117;85;21093;-67
2022/11/24 05:27:36;;;;;;;0.93;0.50;;;;;;;3.73;87.36;94550.73;1667690;85;21102;-67
2022/11/24 05:30:05;;;;;;;2.20;0.83;;;;;;;3.64;87.52;94554.27;1667646;86;21098;-67
2022/11/24 05:32:32;;;;;;;1.20;0.70;;;;;;;3.58;87.69;94557.36;1668944;86;21518;-67
2022/11/24 05:35:01;;;;;;;3.03;0.93;;;;;;;3.47;87.72;94566.14;1666740;86;21085;-67
2022/11/24 05:37:30;;;;;;;4.20;1.23;;;;;;;3.35;88.23;94564.95;1668298;86;21018;-68
2022/11/24 05:39:56;;;;;;;2.80;1.00;;;;;;;3.29;88.27;94568.03;1668831;86;21030;-68
2022/11/24 05:42:41;;;;;;;1.93;1.23;;;;;;;3.24;88.37;94566.76;1668384;86;21010;-68
2022/11/24 05:45:12;;;;;;;1.43;0.73;;;;;;;3.22;88.42;94572.41;1668572;86;21065;-68
2022/11/24 05:47:40;;;;;;;1.20;0.90;;;;;;;3.19;88.63;94571.14;1668688;86;21511;-68
2022/11/24 05:50:09;;;;;;;1.23;0.93;;;;;;;3.21;88.53;94578.52;1667738;86;21089;-67
2022/11/24 05:52:37;;;;;;;1.40;1.10;;;;;;;3.18;88.55;94578.55;1668666;86;21085;-67
2022/11/24 05:55:06;;;;;;;1.83;0.87;;;;;;;3.19;88.62;94588.08;1668701;86;21524;-67
2022/11/24 05:57:33;;;;;;;1.50;0.93;;;;;;;3.18;88.67;94583.76;1668616;86;21524;-67
2022/11/24 06:00:00;;;;;;;1.57;0.70;;;;;;;3.21;88.73;94591.11;1668197;86;21089;-66
2022/11/24 06:02:26;;;;;;;1.73;0.60;;;;;;;3.23;88.58;94595.88;1668279;86;21050;-68
2022/11/24 06:04:53;;;;;;;3.10;0.80;;;;;;;3.24;88.46;94596.73;1667929;86;21026;-67
2022/11/24 06:07:19;;;;;;;3.23;0.80;;;;;;;3.23;88.27;94604.14;1667346;86;21053;-67
2022/11/24 06:09:46;;;;;;;0.90;0.70;;;;;;;3.22;88.19;94609.77;1668139;86;21155;-71
2022/11/24 06:12:13;;;;;;;2.33;0.80;;;;;;;3.21;88.16;94612.41;1668004;86;21002;-71
2022/11/24 06:14:40;;;;;;;1.80;0.90;;;;;;;3.21;88.22;94615.88;1667516;86;21572;-70
2022/11/24 06:17:09;;;;;;;1.33;0.70;;;;;;;3.26;88.38;94614.55;1667141;86;21029;-69
2022/11/24 06:19:36;;;;;;;0.97;0.70;;;;;;;3.28;87.98;94621.92;1668499;86;21086;-69
2022/11/24 06:22:03;;;;;;;1.27;0.70;;;;;;;3.20;87.57;94628.91;1666808;86;21642;-69
2022/11/24 06:24:29;;;;;;;1.50;0.67;;;;;;;3.15;87.78;94630.26;1668303;86;21046;-72
2022/11/24 06:26:56;;;;;;;1.23;0.67;;;;;;;3.19;88.00;94631.09;1670260;85;21086;-69
2022/11/24 06:29:22;;;;;;;1.57;0.90;;;;;;;3.21;87.96;94634.12;1673196;85;21048;-72
2022/11/24 06:31:49;;;;;;;1.00;0.70;;;;;;;3.20;87.84;94636.31;1671853;86;21678;-69
2022/11/24 06:34:16;;;;;;;2.60;1.00;;;;;;;3.17;87.66;94641.52;1672772;86;21025;-75
2022/11/24 06:36:43;;;;;;;1.77;0.97;;;;;;;3.17;87.79;94636.75;1672821;86;21568;-69
2022/11/24 06:39:09;;;;;;;1.00;0.60;;;;;;;3.18;87.91;94641.97;1672795;85;21042;-66
2022/11/24 06:41:36;;;;;;;1.90;0.90;;;;;;;3.22;88.02;94641.05;1673016;86;21030;-69
2022/11/24 06:44:04;;;;;;;1.00;0.70;;;;;;;3.28;88.11;94644.53;1672151;86;21041;-68
2022/11/24 06:46:31;;;;;;;1.80;0.97;;;;;;;3.28;87.49;94648.00;1671292;85;21540;-72
2022/11/24 06:48:58;;;;;;;2.00;1.50;;;;;;;3.27;87.48;94650.59;1663694;86;21035;-69
2022/11/24 06:51:26;;;;;;;2.10;1.67;;;;;;;3.25;87.76;94646.27;1662781;85;21137;-67
2022/11/24 06:53:53;;;;;;;4.73;1.37;;;;;;;3.25;87.52;94655.81;1662976;86;21076;-70
2022/11/24 06:56:21;;;;;;;2.07;1.30;;;;;;;3.20;87.35;94658.47;1663826;86;21524;-72
2022/11/24 06:58:51;;;;;;;2.97;1.00;;;;;;;3.15;87.26;94662.84;1663788;86;21116;-69
2022/11/24 07:01:27;;;;;;;3.40;1.20;;;;;;;3.08;87.52;94667.64;1664113;86;21053;-70
2022/11/24 07:03:56;;;;;;;2.10;0.93;;;;;;;3.01;87.49;94662.89;1664155;86;21026;-68
2022/11/24 07:06:24;;;;;;;1.63;0.90;;;;;;;2.97;87.41;94670.31;1663560;86;21038;-69
2022/11/24 07:08:52;;;;;;;2.50;1.20;;;;;;;2.93;87.58;94671.19;1664093;86;21580;-69
2022/11/24 07:11:22;;;;;;;4.47;2.10;;;;;;;2.93;87.54;94673.79;1663932;85;21092;-67
2022/11/24 07:13:52;;;;;;;1.43;1.03;;;;;;;2.93;87.50;94672.48;1664115;86;21042;-66
2022/11/24 07:16:23;;;;;;;2.27;1.50;;;;;;;2.88;87.45;94683.36;1664007;86;21022;-66
2022/11/24 07:18:52;;;;;;;1.27;1.10;;;;;;;2.87;87.54;94682.05;1664513;86;20995;-67
2022/11/24 07:21:21;;;;;;;5.13;1.40;;;;;;;2.88;87.57;94687.72;1663889;86;21090;-68
2022/11/24 07:23:50;;;;;;;1.50;1.20;;;;;;;2.86;87.49;94688.16;1664253;85;21062;-72
2022/11/24 07:26:18;;;;;;;3.10;1.43;;;;;;;2.87;87.71;94688.56;1663815;86;21050;-72
2022/11/24 07:28:45;;;;;;;2.00;1.33;;;;;;;2.92;87.83;94685.51;1666168;85;21069;-70
2022/11/24 07:31:17;;;;;;;2.03;1.47;;;;;;;2.93;87.67;94683.35;1664170;86;21034;-68
2022/11/24 07:33:49;;;;;;;2.53;1.30;;;;;;;2.96;87.60;94692.45;1660883;86;21604;-70
2022/11/24 07:36:17;;;;;;;6.73;2.13;;;;;;;2.98;87.66;94684.20;1659993;86;21046;-74
2022/11/24 07:38:44;;;;;;;3.63;1.70;;;;;;;2.97;87.48;94687.25;1661031;86;21117;-68
2022/11/24 07:41:13;;;;;;;4.57;2.00;;;;;;;3.00;87.42;94684.62;1660877;86;21086;-69
2022/11/24 07:43:40;;;;;;;3.07;1.40;;;;;;;2.98;87.09;94694.18;1661087;85;21117;-68
2022/11/24 07:46:11;;;;;;;6.17;2.50;;;;;;;2.98;87.01;94686.36;1661099;85;21109;-69
2022/11/24 07:48:38;;;;;;;4.13;2.00;;;;;;;2.99;86.95;94688.08;1674523;85;21499;-67
2022/11/24 07:51:06;;;;;;;3.20;1.50;;;;;;;2.98;87.11;94695.48;1677308;85;21036;-67
2022/11/24 07:53:34;;;;;;;6.10;2.23;;;;;;;2.97;86.70;94696.78;1677475;85;21569;-66
2022/11/24 07:56:04;;;;;;;1.73;1.40;;;;;;;2.92;86.69;94707.21;1677821;85;21147;-66
2022/11/24 07:58:35;;;;;;;2.40;1.43;;;;;;;2.92;86.83;94699.39;1678620;85;21490;-66
2022/11/24 08:01:14;;;;;;;2.63;1.37;;;;;;;2.96;86.98;94701.13;1678969;85;21543;-66
2022/11/24 08:03:42;;;;;;;2.30;1.40;;;;;;;3.00;86.98;94705.47;1679061;85;21079;-63
2022/11/24 08:06:10;;;;;;;3.37;1.43;;;;;;;3.07;87.13;94709.34;1678986;85;21084;-65
2022/11/24 08:08:37;;;;;;;1.77;1.23;;;;;;;3.16;87.46;94710.62;1677512;85;21068;-66
2022/11/24 08:11:14;;;;;;;4.43;2.47;;;;;;;3.21;86.85;94707.55;1677459;85;21021;-66
2022/11/24 08:13:41;;;;;;;3.40;1.40;;;;;;;3.20;86.34;94710.60;1677215;85;21120;-64
2022/11/24 08:16:12;;;;;;;2.93;1.60;;;;;;;3.18;86.07;94717.55;1677353;85;21047;-65
2022/11/24 08:18:39;;;;;;;5.00;2.13;;;;;;;3.11;85.81;94717.15;1677506;85;21056;-66
2022/11/24 08:21:07;;;;;;;4.00;1.60;;;;;;;3.07;85.94;94715.86;1677582;85;21092;-68
2022/11/24 08:23:34;;;;;;;3.20;2.17;;;;;;;3.01;85.96;94718.92;1677441;85;21103;-75
2022/11/24 08:26:14;;;;;;;4.03;1.83;;;;;;;2.99;86.14;94721.09;1676132;85;21174;-67
2022/11/24 08:28:41;;;;;;;3.13;1.87;;;;;;;2.96;86.28;94727.63;1663243;85;21072;-70
2022/11/24 08:31:11;;;;;;;4.70;1.50;;;;;;;2.88;86.27;94730.70;1660743;86;21045;-71
2022/11/24 08:33:39;;;;;;;3.53;1.40;;;;;;;2.86;86.48;94728.53;1660489;86;21053;-65
2022/11/24 08:36:10;;;;;;;2.47;1.47;;;;;;;2.84;86.35;94737.64;1660842;85;21129;-67
2022/11/24 08:38:37;;;;;;;2.73;1.60;;;;;;;2.86;86.48;94729.84;1661195;86;21021;-67
2022/11/24 08:41:08;;;;;;;2.00;1.37;;;;;;;2.91;86.82;94735.45;1660412;85;21033;-66
2022/11/24 08:43:35;;;;;;;2.13;1.60;;;;;;;2.97;86.97;94734.16;1660902;86;21104;-67
2022/11/24 08:46:07;;;;;;;1.37;1.00;;;;;;;3.11;87.20;94741.05;1660203;85;21175;-68
2022/11/24 08:48:35;;;;;;;3.37;1.90;;;;;;;3.18;86.82;94733.64;1661143;86;21017;-63
2022/11/24 08:51:12;;;;;;;3.10;1.53;;;;;;;3.27;86.80;94737.94;1660157;86;21052;-67
2022/11/24 08:53:40;;;;;;;2.03;1.30;;;;;;;3.34;86.71;94733.13;1660604;86;21076;-69
2022/11/24 08:56:08;;;;;;;2.53;1.40;;;;;;;3.44;86.63;94738.73;1659880;86;21076;-70
2022/11/24 08:58:36;;;;;;;6.63;1.40;;;;;;;3.45;85.56;94740.03;1661057;86;21017;-71
2022/11/24 09:01:13;;;;;;;1.87;1.50;;;;;;;3.42;85.58;94736.55;1660332;86;21136;-67
2022/11/24 09:03:41;;;;;;;3.60;1.37;;;;;;;3.42;85.57;94738.72;1660187;85;21033;-74
2022/11/24 09:06:08;;;;;;;2.80;2.13;;;;;;;3.50;86.09;94737.38;1660692;85;21127;-69
2022/11/24 09:08:37;;;;;;;3.33;2.63;;;;;;;3.55;85.96;94732.14;1660978;86;21061;-70
2022/11/24 09:11:07;;;;;;;3.03;2.10;;;;;;;3.61;85.91;94733.43;1660193;86;21559;-69
2022/11/24 09:13:35;;;;;;;4.20;2.80;;;;;;;3.65;85.58;94735.13;1659613;85;21125;-68
2022/11/24 09:16:04;;;;;;;3.73;2.73;;;;;;;3.65;85.56;94732.11;1659677;86;21068;-66
2022/11/24 09:18:31;;;;;;;3.07;2.10;;;;;;;3.69;85.58;94732.50;1660076;86;21096;-66
2022/11/24 09:21:13;;;;;;;3.07;1.83;;;;;;;3.72;85.45;94735.52;1660673;86;21033;-68
2022/11/24 09:23:41;;;;;;;1.90;1.60;;;;;;;3.71;85.13;94740.33;1660126;86;21116;-67
2022/11/24 09:26:15;;;;;;;2.07;1.60;;;;;;;3.64;84.84;94738.17;1661075;86;21044;-69
2022/11/24 09:28:42;;;;;;;2.43;1.73;;;;;;;3.62;85.01;94734.70;1668656;85;21083;-69
2022/11/24 09:31:12;;;;;;;1.80;1.57;;;;;;;3.61;84.89;94734.73;1671416;86;21111;-74
2022/11/24 09:33:40;;;;;;;3.07;2.20;;;;;;;3.54;84.73;94736.94;1653149;86;21140;-72
2022/11/24 09:36:08;;;;;;;3.80;2.20;;;;;;;3.52;85.13;94741.30;1671779;86;21545;-70
2022/11/24 09:38:35;;;;;;;3.17;2.10;;;;;;;3.50;85.10;94743.89;1671817;86;21641;-65
2022/11/24 09:41:22;;;;;;;4.17;2.40;;;;;;;3.50;85.33;94740.42;1672292;86;21075;-66
2022/11/24 09:44:08;;;;;;;3.37;2.10;;;;;;;3.49;85.40;94737.41;1672054;85;21048;-71
2022/11/24 09:46:55;;;;;;;3.40;2.00;;;;;;;3.44;85.30;94742.19;1672518;86;21067;-71
2022/11/24 09:49:48;;;;;;;2.73;1.83;;;;;;;3.41;85.39;94739.61;1672722;85;21523;-72
2022/11/24 09:52:20;;;;;;;3.13;1.90;;;;;;;3.45;85.65;94740.03;1671868;86;21044;-71
2022/11/24 09:54:59;;;;;;;2.80;1.83;;;;;;;3.49;85.71;94745.23;1673173;86;21099;-68
2022/11/24 09:57:29;;;;;;;5.10;2.00;;;;;;;3.52;85.89;94748.67;1672951;86;21060;-67
2022/11/24 10:00:01;;;;;;;3.30;1.90;;;;;;;3.49;85.58;94743.48;1672488;86;21068;-68
2022/11/24 10:02:27;;;;;;;2.93;1.70;;;;;;;3.46;85.70;94743.50;1673089;86;20989;-64
2022/11/24 10:04:55;;;;;;;4.23;2.10;;;;;;;3.47;85.75;94747.39;1672764;86;21571;-65
2022/11/24 10:07:39;;;;;;;2.43;1.60;;;;;;;3.49;85.69;94746.53;1671847;86;21519;-65
2022/11/24 10:10:25;;;;;;;2.40;1.77;;;;;;;3.54;85.87;94740.86;1672942;85;21041;-65
2022/11/24 10:13:03;;;;;;;3.50;1.97;;;;;;;3.62;85.51;94745.14;1671942;86;21127;-66
2022/11/24 10:15:59;;;;;;;5.20;3.27;;;;;;;3.64;85.46;94750.36;1671518;85;21095;-66
2022/11/24 10:19:13;;;;;;;4.70;2.83;;;;;;;3.68;85.73;94742.52;1671729;85;21000;-67
2022/11/24 10:21:51;;;;;;;4.72;2.85;;;;;;;3.77;85.65;94746.80;1671837;86;21574;-66
2022/11/24 10:24:55;;;;;;;4.10;2.97;;;;;;;3.81;85.55;94745.05;1672953;86;21023;-66
2022/11/24 10:27:30;;;;;;;6.57;2.63;;;;;;;3.85;85.05;94748.91;1672399;85;21013;-67
2022/11/24 10:29:59;;;;;;;7.00;3.47;;;;;;;3.88;85.17;94746.31;1658346;86;21164;-66
2022/11/24 10:32:34;;;;;;;6.20;3.90;;;;;;;3.89;84.90;94745.42;1660191;85;21029;-66
2022/11/24 10:35:20;;;;;;;2.93;2.20;;;;;;;3.93;85.09;94746.28;1659837;86;21630;-66
2022/11/24 10:37:55;;;;;;;4.13;2.63;;;;;;;3.93;84.90;94741.47;1657741;86;21039;-66
2022/11/24 10:40:30;;;;;;;6.47;3.00;;;;;;;3.93;84.78;94745.39;1634463;86;20994;-67
2022/11/24 10:42:57;;;;;;;5.60;2.60;;;;;;;3.94;84.80;94741.92;1661107;86;21002;-67
2022/11/24 10:45:27;;;;;;;6.23;3.00;;;;;;;3.96;84.88;94744.09;1660759;86;21033;-66
2022/11/24 10:47:53;;;;;;;5.20;3.50;;;;;;;3.90;84.62;94740.61;1661021;86;21065;-66
2022/11/24 10:50:26;;;;;;;6.93;3.40;;;;;;;3.88;84.94;94737.17;1660940;86;21085;-66
2022/11/24 10:53:26;;;;;;;4.28;2.92;;;;;;;3.90;85.14;94739.75;1660855;85;21089;-67
2022/11/24 10:55:59;;;;;;;4.87;2.50;;;;;;;3.92;85.45;94743.67;1660897;86;21484;-66
2022/11/24 10:58:36;;;;;;;4.00;2.27;;;;;;;3.91;85.33;94737.59;1660992;86;21066;-66
2022/11/24 11:01:18;;;;;;;6.13;3.73;;;;;;;3.93;85.18;94741.06;1660746;86;21050;-66
2022/11/24 11:03:54;;;;;;;8.47;4.50;;;;;;;3.93;85.26;94738.87;1659482;86;21542;-67
2022/11/24 11:06:28;;;;;;;7.97;4.27;;;;;;;3.95;85.47;94742.34;1660669;86;21415;-66
2022/11/24 11:09:19;;;;;;;3.60;2.10;;;;;;;3.97;85.63;94737.53;1660802;85;21050;-66
2022/11/24 11:11:47;;;;;;;3.47;1.90;;;;;;;3.98;85.98;94739.70;1661112;86;20997;-66
2022/11/24 11:14:34;;;;;;;5.10;2.57;;;;;;;3.98;85.72;94737.98;1660863;85;21044;-67
2022/11/24 11:17:02;;;;;;;2.60;1.60;;;;;;;4.00;85.51;94743.17;1661022;86;21021;-66
2022/11/24 11:19:42;;;;;;;2.43;1.83;;;;;;;4.00;85.37;94742.73;1660987;85;21036;-66
2022/11/24 11:22:29;;;;;;;4.03;1.70;;;;;;;4.03;85.24;94747.95;1660785;86;21084;-66
2022/11/24 11:25:13;;;;;;;2.53;1.63;;;;;;;4.10;85.42;94750.06;1661122;86;21053;-66
2022/11/24 11:27:41;;;;;;;3.20;1.30;;;;;;;4.13;85.29;94744.81;1661566;85;21017;-66
2022/11/24 11:30:24;;;;;;;2.03;1.40;;;;;;;4.10;85.42;94747.45;1673093;86;21080;-66
2022/11/24 11:32:57;;;;;;;4.15;2.80;;;;;;;4.12;85.40;94749.61;1673545;85;21056;-66
2022/11/24 11:35:27;;;;;;;2.58;1.90;;;;;;;4.13;85.75;94751.33;1672942;86;21033;-66
2022/11/24 11:37:59;;;;;;;5.10;3.40;;;;;;;4.19;85.86;94751.31;1672948;86;21020;-66
2022/11/24 11:40:28;;;;;;;2.57;1.40;;;;;;;4.28;86.18;94752.97;1673134;86;21005;-66
2022/11/24 11:43:22;;;;;;;2.57;1.67;;;;;;;4.36;85.69;94752.91;1672966;86;21016;-66
2022/11/24 11:46:03;;;;;;;4.42;1.50;;;;;;;4.44;85.80;94756.34;1673244;86;21616;-66
2022/11/24 11:48:33;;;;;;;5.87;1.60;;;;;;;4.55;85.69;94759.71;1672919;86;21031;-66
2022/11/24 11:51:08;;;;;;;1.77;1.50;;;;;;;4.61;85.32;94762.70;1673005;86;21567;-66
2022/11/24 11:53:46;;;;;;;1.43;1.23;;;;;;;4.66;85.01;94763.52;1673142;85;21080;-66
2022/11/24 11:56:20;;;;;;;1.87;1.27;;;;;;;4.69;85.18;94760.91;1672811;86;21040;-66
2022/11/24 11:59:01;;;;;;;1.77;1.40;;;;;;;4.77;84.83;94756.47;1673321;86;21020;-66